createdAt,value
2022-12-26T00:02:00.601Z,76.05
2022-12-26T00:04:50.165Z,76.18
2022-12-26T00:07:17.649Z,76.12
2022-12-26T00:09:46.147Z,75.90
2022-12-26T00:12:14.703Z,75.94
2022-12-26T00:14:43.399Z,76.08
2022-12-26T00:17:12.143Z,76.22
2022-12-26T00:19:40.628Z,76.03
2022-12-26T00:22:09.456Z,76.11
2022-12-26T00:24:38.855Z,76.19
2022-12-26T00:27:07.287Z,76.26
2022-12-26T00:29:35.898Z,76.34
2022-12-26T00:32:04.768Z,76.33
2022-12-26T00:34:33.283Z,76.36
2022-12-26T00:37:01.771Z,76.48
2022-12-26T00:39:30.429Z,76.42
2022-12-26T00:41:58.970Z,76.48
2022-12-26T00:44:27.750Z,76.60
2022-12-26T00:46:56.548Z,76.44
2022-12-26T00:49:26.619Z,76.52
2022-12-26T00:51:55.176Z,76.47
2022-12-26T00:54:23.945Z,76.62
2022-12-26T00:56:52.688Z,76.52
2022-12-26T00:59:21.755Z,76.61
2022-12-26T01:01:50.448Z,76.48
2022-12-26T01:04:19.172Z,76.75
2022-12-26T01:06:47.862Z,76.71
2022-12-26T01:09:16.481Z,76.70
2022-12-26T01:11:44.951Z,76.73
2022-12-26T01:14:16.873Z,76.87
2022-12-26T01:16:47.285Z,76.78
2022-12-26T01:19:16.006Z,76.84
2022-12-26T01:21:44.587Z,76.95
2022-12-26T01:24:14.070Z,76.99
2022-12-26T01:26:42.739Z,76.87
2022-12-26T01:29:11.298Z,76.94
2022-12-26T01:31:39.931Z,76.88
2022-12-26T01:34:09.037Z,76.72
2022-12-26T01:36:37.496Z,76.95
2022-12-26T01:39:06.123Z,76.94
2022-12-26T01:41:34.690Z,76.96
2022-12-26T01:44:06.261Z,76.97
2022-12-26T01:46:40.760Z,76.99
2022-12-26T01:49:21.000Z,76.70
2022-12-26T01:51:55.338Z,76.65
2022-12-26T01:54:40.696Z,76.86
2022-12-26T01:57:17.434Z,76.62
2022-12-26T01:59:48.479Z,76.65
2022-12-26T02:02:21.002Z,76.88
2022-12-26T02:05:10.870Z,76.77
2022-12-26T02:07:43.330Z,76.93
2022-12-26T02:10:15.270Z,76.86
2022-12-26T02:12:44.590Z,76.82
2022-12-26T02:15:17.429Z,76.76
2022-12-26T02:17:48.276Z,76.97
2022-12-26T02:20:26.480Z,76.82
2022-12-26T02:23:10.567Z,76.78
2022-12-26T02:25:45.211Z,77.01
2022-12-26T02:28:32.019Z,76.94
2022-12-26T02:31:15.482Z,76.94
2022-12-26T02:34:14.139Z,76.63
2022-12-26T02:37:01.302Z,76.71
2022-12-26T02:39:51.772Z,76.96
2022-12-26T02:42:52.547Z,76.79
2022-12-26T02:46:03.193Z,76.79
2022-12-26T02:48:53.375Z,76.83
2022-12-26T02:51:44.594Z,76.70
2022-12-26T02:54:44.973Z,76.61
2022-12-26T02:57:38.874Z,76.76
2022-12-26T03:00:36.689Z,76.84
2022-12-26T03:03:33.847Z,76.87
2022-12-26T03:06:39.455Z,76.75
2022-12-26T03:09:34.163Z,76.79
2022-12-26T03:12:49.739Z,76.84
2022-12-26T03:15:22.499Z,76.61
2022-12-26T03:17:57.667Z,76.67
2022-12-26T03:20:33.480Z,76.58
2022-12-26T03:23:10.351Z,76.86
2022-12-26T03:26:11.125Z,77.02
2022-12-26T03:28:41.448Z,77.06
2022-12-26T03:31:12.861Z,76.98
2022-12-26T03:34:05.764Z,77.00
2022-12-26T03:36:46.463Z,77.07
2022-12-26T03:39:51.417Z,77.01
2022-12-26T03:42:54.736Z,77.01
2022-12-26T03:45:54.780Z,77.07
2022-12-26T03:48:58.262Z,77.00
2022-12-26T03:51:58.259Z,77.13
2022-12-26T03:55:05.236Z,77.26
2022-12-26T03:58:11.952Z,77.40
2022-12-26T04:01:01.819Z,77.33
2022-12-26T04:03:51.818Z,77.44
2022-12-26T04:06:45.043Z,77.27
2022-12-26T04:09:41.263Z,77.26
2022-12-26T04:12:37.411Z,77.36
2022-12-26T04:15:34.725Z,77.29
2022-12-26T04:18:33.078Z,77.33
2022-12-26T04:21:53.626Z,77.50
2022-12-26T04:24:49.266Z,77.35
2022-12-26T04:27:40.462Z,77.24
2022-12-26T04:30:28.087Z,77.44
2022-12-26T04:33:23.883Z,77.43
2022-12-26T04:36:34.160Z,77.48
2022-12-26T04:39:25.218Z,77.59
2022-12-26T04:42:15.807Z,77.40
2022-12-26T04:44:46.125Z,77.30
2022-12-26T04:47:14.800Z,77.40
2022-12-26T04:50:03.773Z,77.48
2022-12-26T04:52:55.801Z,77.63
2022-12-26T04:55:26.846Z,77.68
2022-12-26T04:57:56.279Z,77.52
2022-12-26T05:00:28.104Z,77.57
2022-12-26T05:03:18.965Z,77.37
2022-12-26T05:06:09.766Z,77.30
2022-12-26T05:09:00.469Z,77.58
2022-12-26T05:11:31.690Z,77.70
2022-12-26T05:14:00.760Z,77.74
2022-12-26T05:16:48.225Z,77.76
2022-12-26T05:19:36.757Z,77.70
2022-12-26T05:22:24.656Z,77.71
2022-12-26T05:25:12.026Z,77.75
2022-12-26T05:28:02.720Z,77.85
2022-12-26T05:30:31.429Z,77.90
2022-12-26T05:33:18.762Z,77.80
2022-12-26T05:35:47.726Z,77.95
2022-12-26T05:38:16.396Z,77.86
2022-12-26T05:40:44.960Z,77.72
2022-12-26T05:43:13.384Z,77.99
2022-12-26T05:45:42.014Z,77.90
2022-12-26T05:48:10.545Z,77.90
2022-12-26T05:50:38.946Z,77.91
2022-12-26T05:53:07.603Z,78.04
2022-12-26T05:55:36.187Z,78.08
2022-12-26T05:58:04.857Z,78.00
2022-12-26T06:00:33.738Z,78.14
2022-12-26T06:03:02.468Z,78.02
2022-12-26T06:05:31.295Z,78.00
2022-12-26T06:07:59.727Z,78.11
2022-12-26T06:10:29.753Z,78.21
2022-12-26T06:13:00.364Z,78.21
2022-12-26T06:15:29.039Z,78.25
2022-12-26T06:17:57.716Z,78.06
2022-12-26T06:20:26.214Z,78.07
2022-12-26T06:22:54.974Z,78.14
2022-12-26T06:25:23.499Z,78.32
2022-12-26T06:27:51.972Z,78.23
2022-12-26T06:30:20.500Z,78.24
2022-12-26T06:32:49.201Z,78.27
2022-12-26T06:35:17.800Z,78.29
2022-12-26T06:37:46.288Z,78.44
2022-12-26T06:40:15.066Z,78.39
2022-12-26T06:42:43.822Z,78.33
2022-12-26T06:45:12.365Z,78.20
2022-12-26T06:47:41.110Z,78.27
2022-12-26T06:50:09.991Z,78.22
2022-12-26T06:52:40.953Z,78.33
2022-12-26T06:55:09.463Z,78.50
2022-12-26T06:57:38.034Z,78.43
2022-12-26T07:00:07.576Z,78.37
2022-12-26T07:02:36.371Z,78.27
2022-12-26T07:05:06.334Z,78.21
2022-12-26T07:07:34.795Z,78.42
2022-12-26T07:10:03.388Z,78.26
2022-12-26T07:12:34.820Z,78.43
2022-12-26T07:15:03.509Z,78.44
2022-12-26T07:17:32.177Z,78.42
2022-12-26T07:20:00.653Z,78.45
2022-12-26T07:22:29.516Z,78.56
2022-12-26T07:24:58.249Z,78.73
2022-12-26T07:27:28.992Z,78.69
2022-12-26T07:29:57.469Z,78.65
2022-12-26T07:32:27.861Z,78.75
2022-12-26T07:34:56.553Z,78.65
2022-12-26T07:37:25.137Z,78.78
2022-12-26T07:39:58.680Z,78.54
2022-12-26T07:42:27.948Z,78.48
2022-12-26T07:44:56.519Z,78.54
2022-12-26T07:47:25.049Z,78.69
2022-12-26T07:49:54.382Z,78.55
2022-12-26T07:52:25.202Z,78.63
2022-12-26T07:54:53.718Z,78.49
2022-12-26T07:57:47.578Z,78.47
2022-12-26T08:00:11.932Z,78.65
2022-12-26T08:02:43.699Z,78.58
2022-12-26T08:05:12.313Z,78.81
2022-12-26T08:07:40.773Z,78.70
2022-12-26T08:10:09.965Z,78.72
2022-12-26T08:12:38.653Z,78.60
2022-12-26T08:15:08.242Z,78.60
2022-12-26T08:17:36.783Z,78.74
2022-12-26T08:20:05.851Z,78.88
2022-12-26T08:22:34.285Z,78.76
2022-12-26T08:25:02.792Z,78.89
2022-12-26T08:27:31.349Z,78.72
2022-12-26T08:29:59.989Z,78.57
2022-12-26T08:32:28.651Z,78.76
2022-12-26T08:34:57.258Z,78.55
2022-12-26T08:37:25.881Z,78.68
2022-12-26T08:39:54.367Z,78.54
2022-12-26T08:42:23.103Z,78.39
2022-12-26T08:44:51.625Z,78.69
2022-12-26T08:47:20.446Z,78.72
2022-12-26T08:49:48.955Z,78.76
2022-12-26T08:52:17.462Z,78.65
2022-12-26T08:54:45.920Z,78.67
2022-12-26T08:57:14.561Z,78.77
2022-12-26T08:59:43.000Z,78.75
2022-12-26T09:02:12.068Z,78.90
2022-12-26T09:04:40.725Z,78.83
2022-12-26T09:07:09.901Z,78.90
2022-12-26T09:09:38.710Z,78.78
2022-12-26T09:12:07.259Z,78.75
2022-12-26T09:14:36.184Z,78.85
2022-12-26T09:17:04.705Z,78.75
2022-12-26T09:19:33.295Z,78.86
2022-12-26T09:22:20.835Z,78.88
2022-12-26T09:24:49.512Z,78.74
2022-12-26T09:27:18.223Z,78.81
2022-12-26T09:29:46.768Z,78.69
2022-12-26T09:32:15.380Z,78.76
2022-12-26T09:34:48.803Z,78.75
2022-12-26T09:37:17.717Z,78.83
2022-12-26T09:39:46.213Z,78.70
2022-12-26T09:42:33.254Z,78.81
2022-12-26T09:45:01.615Z,78.88
2022-12-26T09:47:42.809Z,78.78
2022-12-26T09:50:49.561Z,78.75
2022-12-26T09:53:26.255Z,78.69
2022-12-26T09:55:59.996Z,78.86
2022-12-26T09:58:57.067Z,78.75
2022-12-26T10:01:36.323Z,78.85
2022-12-26T10:04:14.902Z,78.83
2022-12-26T10:06:53.658Z,78.82
2022-12-26T10:09:44.740Z,78.79
2022-12-26T10:12:30.135Z,78.67
2022-12-26T10:15:31.077Z,78.62
2022-12-26T10:18:12.587Z,78.67
2022-12-26T10:20:47.488Z,78.54
2022-12-26T10:23:35.372Z,78.66
2022-12-26T10:26:14.600Z,78.73
2022-12-26T10:29:04.472Z,78.87
2022-12-26T10:31:39.105Z,78.69
2022-12-26T10:34:35.178Z,78.65
2022-12-26T10:37:22.550Z,78.62
2022-12-26T10:40:06.398Z,78.81
2022-12-26T10:42:38.733Z,78.71
2022-12-26T10:45:18.012Z,78.75
2022-12-26T10:47:52.345Z,78.86
2022-12-26T10:50:29.557Z,78.94
2022-12-26T10:53:00.129Z,78.99
2022-12-26T10:55:34.764Z,78.98
2022-12-26T10:58:07.248Z,79.07
2022-12-26T11:00:35.839Z,79.06
2022-12-26T11:03:09.068Z,79.10
2022-12-26T11:06:07.029Z,79.10
2022-12-26T11:08:49.625Z,79.08
2022-12-26T11:11:18.480Z,79.04
2022-12-26T11:14:01.216Z,79.02
2022-12-26T11:16:37.906Z,79.01
2022-12-26T11:19:07.137Z,79.18
2022-12-26T11:21:35.729Z,79.17
2022-12-26T11:24:07.616Z,79.08
2022-12-26T11:26:37.915Z,79.09
2022-12-26T11:29:14.659Z,79.02
2022-12-26T11:32:04.692Z,79.12
2022-12-26T11:34:46.365Z,78.93
2022-12-26T11:37:34.157Z,78.98
2022-12-26T11:40:05.050Z,78.75
2022-12-26T11:42:33.821Z,78.80
2022-12-26T11:45:11.920Z,78.93
2022-12-26T11:47:46.039Z,78.80
2022-12-26T11:50:21.645Z,78.85
2022-12-26T11:52:52.015Z,78.79
2022-12-26T11:55:24.256Z,78.88
2022-12-26T11:58:12.328Z,78.84
2022-12-26T12:00:44.730Z,78.94
2022-12-26T12:03:37.565Z,78.86
2022-12-26T12:06:38.484Z,78.83
2022-12-26T12:09:10.053Z,78.90
2022-12-26T12:11:54.498Z,78.93
2022-12-26T12:14:35.555Z,78.73
2022-12-26T12:17:33.751Z,78.79
2022-12-26T12:20:30.264Z,78.68
2022-12-26T12:23:29.962Z,78.64
2022-12-26T12:26:01.201Z,78.50
2022-12-26T12:29:04.217Z,78.36
2022-12-26T12:31:51.693Z,78.43
2022-12-26T12:34:26.305Z,78.22
2022-12-26T12:37:17.651Z,78.27
2022-12-26T12:39:56.170Z,78.28
2022-12-26T12:42:49.285Z,78.22
2022-12-26T12:45:27.756Z,78.00
2022-12-26T12:48:26.181Z,77.88
2022-12-26T12:51:19.046Z,77.89
2022-12-26T12:54:02.621Z,77.92
2022-12-26T12:56:43.628Z,77.91
2022-12-26T12:59:14.850Z,77.93
2022-12-26T13:01:47.553Z,77.92
2022-12-26T13:04:22.685Z,77.71
2022-12-26T13:06:59.906Z,77.74
2022-12-26T13:09:52.681Z,77.87
2022-12-26T13:12:36.111Z,77.91
2022-12-26T13:15:26.561Z,77.89
2022-12-26T13:18:13.457Z,77.90
2022-12-26T13:20:48.141Z,77.90
2022-12-26T13:23:51.166Z,77.80
2022-12-26T13:26:28.686Z,77.80
2022-12-26T13:29:00.883Z,77.86
2022-12-26T13:31:37.696Z,77.84
2022-12-26T13:34:11.819Z,77.57
2022-12-26T13:36:45.675Z,77.65
2022-12-26T13:39:28.367Z,77.60
2022-12-26T13:42:24.756Z,77.79
2022-12-26T13:44:53.959Z,77.82
2022-12-26T13:47:35.153Z,77.69
2022-12-26T13:50:49.915Z,77.63
2022-12-26T13:53:25.068Z,77.71
2022-12-26T13:56:19.574Z,77.64
2022-12-26T13:58:59.998Z,77.64
2022-12-26T14:01:55.774Z,77.74
2022-12-26T14:04:51.342Z,77.57
2022-12-26T14:07:59.084Z,77.67
2022-12-26T14:11:00.354Z,77.68
2022-12-26T14:13:47.253Z,77.69
2022-12-26T14:17:00.893Z,77.63
2022-12-26T14:20:07.729Z,77.67
2022-12-26T14:22:45.633Z,77.76
2022-12-26T14:25:23.020Z,77.75
2022-12-26T14:27:57.795Z,77.79
2022-12-26T14:30:54.697Z,77.71
2022-12-26T14:33:35.359Z,77.65
2022-12-26T14:36:25.439Z,77.54
2022-12-26T14:38:53.812Z,77.49
2022-12-26T14:41:41.758Z,77.52
2022-12-26T14:44:42.058Z,77.59
2022-12-26T14:47:11.201Z,77.64
2022-12-26T14:49:41.911Z,77.70
2022-12-26T14:52:28.345Z,77.52
2022-12-26T14:54:57.076Z,77.65
2022-12-26T14:57:44.158Z,77.58
2022-12-26T15:00:21.953Z,77.62
2022-12-26T15:03:00.354Z,77.59
2022-12-26T15:05:36.958Z,77.54
2022-12-26T15:08:30.578Z,77.58
2022-12-26T15:11:27.294Z,77.42
2022-12-26T15:14:20.217Z,77.48
2022-12-26T15:17:03.940Z,77.59
2022-12-26T15:20:04.069Z,77.68
2022-12-26T15:22:57.643Z,77.68
2022-12-26T15:26:04.304Z,77.63
2022-12-26T15:28:57.762Z,77.55
2022-12-26T15:31:38.599Z,77.64
2022-12-26T15:34:16.198Z,77.76
2022-12-26T15:37:00.723Z,77.76
2022-12-26T15:39:32.099Z,77.63
2022-12-26T15:42:12.617Z,77.66
2022-12-26T15:44:47.022Z,77.56
2022-12-26T15:47:23.272Z,77.70
2022-12-26T15:49:59.197Z,77.84
2022-12-26T15:52:55.805Z,77.71
2022-12-26T15:55:42.977Z,77.86
2022-12-26T15:58:30.259Z,77.80
2022-12-26T16:00:58.982Z,77.68
2022-12-26T16:03:49.949Z,77.81
2022-12-26T16:06:32.746Z,77.82
2022-12-26T16:09:16.225Z,77.80
2022-12-26T16:11:47.716Z,77.73
2022-12-26T16:14:32.385Z,77.83
2022-12-26T16:17:30.936Z,77.71
2022-12-26T16:19:59.654Z,77.81
2022-12-26T16:22:46.511Z,77.73
2022-12-26T16:25:20.483Z,77.76
2022-12-26T16:27:54.317Z,77.88
2022-12-26T16:30:27.046Z,77.92
2022-12-26T16:32:56.171Z,78.11
2022-12-26T16:35:33.944Z,78.07
2022-12-26T16:38:06.743Z,78.09
2022-12-26T16:40:43.551Z,78.13
2022-12-26T16:43:18.165Z,78.09
2022-12-26T16:45:49.595Z,78.08
2022-12-26T16:48:21.407Z,78.07
2022-12-26T16:51:02.974Z,78.10
2022-12-26T16:53:34.452Z,78.08
2022-12-26T16:56:34.319Z,78.15
2022-12-26T16:59:17.792Z,78.01
2022-12-26T17:02:01.049Z,78.08
2022-12-26T17:04:30.396Z,77.93
2022-12-26T17:07:09.483Z,77.93
2022-12-26T17:09:45.377Z,78.17
2022-12-26T17:12:20.288Z,78.04
2022-12-26T17:14:50.697Z,77.96
2022-12-26T17:17:22.306Z,78.06
2022-12-26T17:19:54.448Z,78.05
2022-12-26T17:22:36.678Z,78.11
2022-12-26T17:25:17.527Z,78.11
2022-12-26T17:27:47.915Z,78.21
2022-12-26T17:30:30.347Z,78.10
2022-12-26T17:33:04.739Z,77.98
2022-12-26T17:36:06.092Z,78.03
2022-12-26T17:38:29.165Z,78.06
2022-12-26T17:41:02.000Z,78.01
2022-12-26T17:43:37.991Z,77.96
2022-12-26T17:46:08.901Z,77.95
2022-12-26T17:48:37.625Z,77.94
2022-12-26T17:51:12.356Z,77.74
2022-12-26T17:53:43.322Z,77.94
2022-12-26T17:56:21.265Z,77.95
2022-12-26T17:58:50.282Z,77.97
2022-12-26T18:01:21.754Z,77.92
2022-12-26T18:03:53.035Z,77.82
2022-12-26T18:06:28.440Z,77.91
2022-12-26T18:08:58.329Z,77.71
2022-12-26T18:11:26.868Z,77.84
2022-12-26T18:13:55.367Z,77.87
2022-12-26T18:16:28.238Z,77.76
2022-12-26T18:18:56.797Z,77.87
2022-12-26T18:21:25.345Z,77.71
2022-12-26T18:23:53.950Z,77.86
2022-12-26T18:26:28.865Z,77.68
2022-12-26T18:28:58.057Z,77.63
2022-12-26T18:31:28.104Z,77.72
2022-12-26T18:33:56.765Z,77.91
2022-12-26T18:36:31.570Z,77.97
2022-12-26T18:39:00.921Z,77.88
2022-12-26T18:41:29.527Z,77.87
2022-12-26T18:43:58.313Z,77.84
2022-12-26T18:46:28.035Z,77.61
2022-12-26T18:48:57.596Z,77.64
2022-12-26T18:51:28.091Z,77.76
2022-12-26T18:53:56.598Z,77.70
2022-12-26T18:56:25.200Z,77.65
2022-12-26T18:58:57.728Z,77.70
2022-12-26T19:01:27.228Z,77.68
2022-12-26T19:03:56.169Z,77.66
2022-12-26T19:06:27.726Z,77.61
2022-12-26T19:08:56.772Z,77.66
2022-12-26T19:11:25.303Z,77.66
2022-12-26T19:13:54.281Z,77.65
2022-12-26T19:16:23.449Z,77.66
2022-12-26T19:18:52.222Z,77.54
2022-12-26T19:21:22.059Z,77.59
2022-12-26T19:23:50.771Z,77.50
2022-12-26T19:26:19.323Z,77.56
2022-12-26T19:28:55.184Z,77.57
2022-12-26T19:31:24.140Z,77.70
2022-12-26T19:33:52.761Z,77.58
2022-12-26T19:36:21.339Z,77.61
2022-12-26T19:38:52.232Z,77.58
2022-12-26T19:41:21.523Z,77.69
2022-12-26T19:43:56.027Z,77.50
2022-12-26T19:46:25.256Z,77.67
2022-12-26T19:48:54.367Z,77.51
2022-12-26T19:51:23.546Z,77.61
2022-12-26T19:53:54.544Z,77.65
2022-12-26T19:56:26.076Z,77.48
2022-12-26T19:58:56.996Z,77.54
2022-12-26T20:01:28.945Z,77.47
2022-12-26T20:03:59.982Z,77.53
2022-12-26T20:06:30.553Z,77.61
2022-12-26T20:09:02.194Z,77.57
2022-12-26T20:11:34.824Z,77.46
2022-12-26T20:14:04.888Z,77.41
2022-12-26T20:17:04.388Z,77.44
2022-12-26T20:19:25.139Z,77.36
2022-12-26T20:21:54.629Z,77.43
2022-12-26T20:24:23.531Z,77.41
2022-12-26T20:26:52.155Z,77.46
2022-12-26T20:29:21.440Z,77.36
2022-12-26T20:31:49.998Z,77.42
2022-12-26T20:34:19.292Z,77.50
2022-12-26T20:36:47.851Z,77.29
2022-12-26T20:39:18.894Z,77.23
2022-12-26T20:41:47.617Z,77.38
2022-12-26T20:44:17.123Z,77.56
2022-12-26T20:46:46.451Z,77.44
2022-12-26T20:49:15.468Z,77.46
2022-12-26T20:51:45.162Z,77.42
2022-12-26T20:54:15.665Z,77.52
2022-12-26T20:56:45.122Z,77.50
2022-12-26T20:59:13.809Z,77.42
2022-12-26T21:01:42.785Z,77.38
2022-12-26T21:04:23.169Z,77.38
2022-12-26T21:06:52.662Z,77.41
2022-12-26T21:09:21.255Z,77.32
2022-12-26T21:11:49.919Z,77.37
2022-12-26T21:14:22.216Z,77.26
2022-12-26T21:16:52.402Z,77.04
2022-12-26T21:19:23.176Z,76.93
2022-12-26T21:21:54.642Z,76.87
2022-12-26T21:24:27.858Z,76.61
2022-12-26T21:26:57.132Z,76.30
2022-12-26T21:29:29.015Z,75.90
2022-12-26T21:31:58.530Z,75.67
2022-12-26T21:34:30.086Z,75.74
2022-12-26T21:37:18.288Z,75.51
2022-12-26T21:39:47.658Z,75.51
2022-12-26T21:42:16.632Z,75.50
2022-12-26T21:44:45.217Z,75.35
2022-12-26T21:47:13.812Z,75.21
2022-12-26T21:49:42.458Z,75.19
2022-12-26T21:52:11.613Z,75.14
2022-12-26T21:54:58.883Z,74.97
2022-12-26T21:57:27.533Z,75.01
2022-12-26T21:59:56.034Z,75.02
2022-12-26T22:02:48.841Z,75.09
2022-12-26T22:05:19.749Z,75.10
2022-12-26T22:07:52.361Z,75.23
2022-12-26T22:10:39.740Z,75.05
2022-12-26T22:13:09.355Z,75.10
2022-12-26T22:16:07.895Z,75.18
2022-12-26T22:18:45.560Z,75.11
2022-12-26T22:21:14.392Z,75.17
2022-12-26T22:23:44.017Z,75.17
2022-12-26T22:26:15.143Z,74.99
2022-12-26T22:28:44.464Z,75.13
2022-12-26T22:31:22.686Z,75.17
2022-12-26T22:33:58.701Z,75.08
2022-12-26T22:36:28.833Z,75.15
2022-12-26T22:38:59.250Z,75.04
2022-12-26T22:41:28.868Z,75.07
2022-12-26T22:43:57.541Z,74.97
2022-12-26T22:46:26.120Z,74.91
2022-12-26T22:48:54.947Z,74.94
2022-12-26T22:51:26.021Z,74.80
2022-12-26T22:53:59.987Z,74.78
2022-12-26T22:56:29.753Z,74.79
2022-12-26T22:59:03.327Z,74.67
2022-12-26T23:01:32.287Z,74.63
2022-12-26T23:04:01.626Z,74.75
2022-12-26T23:06:36.878Z,74.59
2022-12-26T23:09:11.719Z,74.72
2022-12-26T23:11:40.985Z,74.63
2022-12-26T23:14:12.928Z,74.70
2022-12-26T23:16:50.829Z,74.43
2022-12-26T23:19:45.949Z,74.40
2022-12-26T23:22:15.373Z,74.19
2022-12-26T23:24:44.062Z,74.05
2022-12-26T23:27:31.759Z,73.89
2022-12-26T23:30:18.496Z,74.10
2022-12-26T23:32:53.174Z,73.76
2022-12-26T23:35:23.294Z,73.88
2022-12-26T23:37:52.012Z,74.03
2022-12-26T23:40:22.429Z,73.96
2022-12-26T23:42:51.172Z,73.73
2022-12-26T23:45:19.703Z,73.66
2022-12-26T23:47:48.478Z,73.56
2022-12-26T23:50:17.586Z,73.68
2022-12-26T23:52:46.248Z,73.67
2022-12-26T23:55:14.927Z,73.75
2022-12-26T23:57:43.694Z,73.65
